Time;durP1;ratioP1;P1;durP2;ratioP2;P2;SDS_P1;SDS_P2;PMS_P1;PMS_P2;Temp;Humidity;BMP_temperature;BMP_pressure;BME280_temperature;BME280_humidity;BME280_pressure;Samples;Min_cycle;Max_cycle;Signal;HPM_P1;HPM_P2
2022/12/14 00:00:57;;;;;;;;;25.75;20.25;;;;;4.26;51.72;99697.44;5007105;28;45417;-78
2022/12/14 00:03:22;;;;;;;;;37.75;33.25;;;;;4.18;51.52;99699.41;4999494;28;45349;-78
2022/12/14 00:05:48;;;;;;;;;35.75;31.75;;;;;4.18;52.21;99698.53;5010836;28;45333;-78
2022/12/14 00:08:15;;;;;;;;;37.00;29.50;;;;;4.19;51.65;99700.25;5000946;28;45332;-78
2022/12/14 00:10:41;;;;;;;;;30.00;26.00;;;;;4.23;52.23;99701.94;5016947;28;45553;-78
2022/12/14 00:13:09;;;;;;;;;36.75;32.50;;;;;4.23;51.50;99710.72;5007279;28;45400;-78
2022/12/14 00:15:38;;;;;;;;;28.00;26.25;;;;;4.12;51.44;99696.03;4998833;28;45330;-78
2022/12/14 00:18:04;;;;;;;;;29.50;23.50;;;;;4.18;51.61;99702.03;4999413;28;45489;-78
2022/12/14 00:20:29;;;;;;;;;34.00;29.50;;;;;4.18;51.58;99704.69;4999563;28;45874;-78
2022/12/14 00:22:56;;;;;;;;;25.00;23.50;;;;;4.21;52.03;99711.66;5000574;28;45337;-78
2022/12/14 00:25:22;;;;;;;;;36.50;32.00;;;;;4.23;51.86;99709.88;5012439;28;45456;-78
2022/12/14 00:27:48;;;;;;;;;36.50;26.75;;;;;4.21;51.67;99694.03;5006016;28;45464;-78
2022/12/14 00:30:16;;;;;;;;;32.75;25.50;;;;;4.23;51.84;99681.66;5011965;28;46267;-78
2022/12/14 00:32:42;;;;;;;;;32.50;30.00;;;;;4.29;51.61;99682.41;4999072;28;45832;-78
2022/12/14 00:35:13;;;;;;;;;35.50;28.25;;;;;4.36;52.13;99684.00;4999189;28;45330;-78
2022/12/14 00:37:39;;;;;;;;;29.25;27.25;;;;;4.35;52.23;99677.88;5005475;28;45592;-78
2022/12/14 00:40:06;;;;;;;;;33.25;30.25;;;;;4.40;51.43;99681.25;5009927;28;45318;-78
2022/12/14 00:42:32;;;;;;;;;35.00;31.75;;;;;4.43;51.82;99675.91;5013572;28;45509;-78
2022/12/14 00:44:58;;;;;;;;;44.50;34.00;;;;;4.43;52.47;99670.63;4999266;28;45437;-78
2022/12/14 00:47:24;;;;;;;;;32.00;26.25;;;;;4.41;51.36;99663.63;4998517;28;45816;-78
2022/12/14 00:49:49;;;;;;;;;27.25;24.50;;;;;4.41;51.82;99661.88;4998864;28;46016;-78
2022/12/14 00:52:14;;;;;;;;;32.00;29.25;;;;;4.42;52.15;99668.88;5001564;28;45351;-78
2022/12/14 00:54:40;;;;;;;;;32.25;29.75;;;;;4.40;52.72;99657.47;5011084;28;45310;-78
2022/12/14 00:57:05;;;;;;;;;35.25;30.00;;;;;4.47;52.58;99663.47;5013064;28;45263;-78
2022/12/14 00:59:31;;;;;;;;;37.00;31.50;;;;;4.52;51.69;99664.22;5014163;28;46199;-78
2022/12/14 01:01:56;;;;;;;;;29.25;23.75;;;;;4.55;52.04;99652.72;5005904;28;45464;-78
2022/12/14 01:04:23;;;;;;;;;27.50;23.25;;;;;4.54;52.52;99650.97;5002237;28;45444;-78
2022/12/14 01:06:50;;;;;;;;;35.25;30.00;;;;;4.53;51.46;99657.19;5014502;28;45489;-78
2022/12/14 01:09:17;;;;;;;;;28.00;25.25;;;;;4.48;51.86;99666.97;5014567;28;46202;-78
2022/12/14 01:11:43;;;;;;;;;37.25;27.50;;;;;4.45;52.36;99665.31;5006404;28;45428;-78
2022/12/14 01:14:09;;;;;;;;;32.75;29.00;;;;;4.47;52.11;99676.69;5018157;28;45479;-78
2022/12/14 01:16:35;;;;;;;;;31.25;28.00;;;;;4.43;52.31;99678.53;5008814;28;45285;-78
2022/12/14 01:19:01;;;;;;;;;31.75;28.00;;;;;4.50;51.87;99691.63;5001910;28;45273;-78
2022/12/14 01:21:27;;;;;;;;;38.25;33.50;;;;;4.44;52.20;99685.59;5002050;28;45865;-78
2022/12/14 01:23:58;;;;;;;;;27.25;23.25;;;;;4.48;51.92;99696.94;5004024;28;45350;-78
2022/12/14 01:26:25;;;;;;;;;32.75;28.00;;;;;4.44;51.79;99697.91;5011033;28;45544;-78
2022/12/14 01:28:55;;;;;;;;;41.50;29.75;;;;;4.49;52.08;99705.72;5011531;28;45684;-78
2022/12/14 01:31:23;;;;;;;;;34.00;26.50;;;;;4.49;52.16;99701.31;5001281;28;45487;-78
2022/12/14 01:33:48;;;;;;;;;31.00;29.25;;;;;4.44;52.73;99688.22;5001979;28;45393;-78
2022/12/14 01:36:16;;;;;;;;;31.25;24.25;;;;;4.42;51.74;99695.28;5001309;28;45479;-78
2022/12/14 01:38:42;;;;;;;;;32.00;27.00;;;;;4.36;52.38;99689.28;5016897;28;45454;-78
2022/12/14 01:41:08;;;;;;;;;41.00;31.00;;;;;4.38;52.89;99698.94;5013046;28;45405;-78
2022/12/14 01:43:48;;;;;;;;;24.25;24.00;;;;;4.38;52.89;99698.94;5020665;28;45445;-78
2022/12/14 01:46:19;;;;;;;;;38.75;27.75;;;;;4.38;52.42;99692.78;4999747;28;45517;-78
2022/12/14 01:48:47;;;;;;;;;32.75;24.00;;;;;4.45;52.83;99692.59;5000275;28;45658;-78
2022/12/14 01:51:13;;;;;;;;;33.25;28.75;;;;;4.50;53.63;99687.19;5007413;28;45329;-78
2022/12/14 01:53:39;;;;;;;;;33.25;29.00;;;;;4.56;54.13;99696.75;5009892;28;45487;-78
2022/12/14 01:56:05;;;;;;;;;24.75;22.75;;;;;4.59;53.41;99697.56;5000288;28;45254;-78
2022/12/14 01:58:32;;;;;;;;;33.25;32.50;;;;;4.53;53.72;99694.19;4999494;28;47382;-78
2022/12/14 02:01:01;;;;;;;;;37.50;32.00;;;;;4.50;54.22;99687.19;5006486;28;45393;-78
2022/12/14 02:03:40;;;;;;;;;31.50;28.00;;;;;4.47;54.08;99681.97;5009251;28;45472;-78
2022/12/14 02:06:16;;;;;;;;;33.75;27.50;;;;;4.43;53.79;99691.75;5013682;28;45686;-78
2022/12/14 02:08:45;;;;;;;;;37.50;33.00;;;;;4.43;54.03;99696.19;5016932;28;46300;-78
2022/12/14 02:11:10;;;;;;;;;34.50;29.00;;;;;4.47;54.17;99700.47;5020138;28;45381;-78
2022/12/14 02:13:40;;;;;;;;;42.50;37.00;;;;;4.54;55.13;99695.91;5017475;28;45447;-78
2022/12/14 02:16:06;;;;;;;;;42.50;33.75;;;;;4.57;54.76;99695.84;4999794;28;45684;-78
2022/12/14 02:18:32;;;;;;;;;42.75;30.75;;;;;4.52;54.89;99697.72;5017123;28;47078;-78
2022/12/14 02:21:16;;;;;;;;;35.25;30.25;;;;;4.44;55.25;99687.34;5007104;28;45544;-78
2022/12/14 02:24:02;;;;;;;;;40.75;35.50;;;;;4.37;54.90;99686.63;5012807;28;45380;-78
2022/12/14 02:26:36;;;;;;;;;35.50;31.25;;;;;4.26;55.70;99684.25;5004635;28;45615;-78
2022/12/14 02:29:47;;;;;;;;;37.00;34.75;;;;;4.23;55.22;99679.03;5008732;28;46282;-78
2022/12/14 02:32:52;;;;;;;;;42.25;34.25;;;;;4.22;55.87;99665.84;5000520;28;45320;-78
2022/12/14 02:35:41;;;;;;;;;33.00;31.00;;;;;4.15;56.45;99646.63;4987288;28;45449;-78
2022/12/14 02:38:37;;;;;;;;;43.25;32.25;;;;;4.10;56.91;99639.75;5012582;28;45353;-78
2022/12/14 02:41:38;;;;;;;;;34.00;29.50;;;;;4.05;57.13;99639.84;5009813;28;45531;-78
2022/12/14 02:44:31;;;;;;;;;35.50;28.50;;;;;3.97;57.61;99618.03;4981447;28;45551;-78
2022/12/14 02:47:06;;;;;;;;;41.50;34.00;;;;;3.98;57.45;99625.06;4969434;28;1152752;-78
2022/12/14 02:50:10;;;;;;;;;37.75;31.00;;;;;3.94;57.85;99637.44;5002326;28;45597;-78
2022/12/14 02:52:47;;;;;;;;;31.75;30.25;;;;;3.85;57.17;99619.19;4991844;28;45589;-78
2022/12/14 02:55:30;;;;;;;;;34.75;30.75;;;;;3.76;58.32;99609.69;5009874;28;45450;-78
2022/12/14 02:58:18;;;;;;;;;27.75;23.25;;;;;3.71;58.09;99601.03;5014034;28;45332;-78
2022/12/14 03:00:45;;;;;;;;;28.75;25.25;;;;;3.66;58.36;99595.84;5000236;28;45324;-78
2022/12/14 03:03:10;;;;;;;;;32.25;26.75;;;;;3.56;58.75;99598.69;5000459;28;46384;-78
2022/12/14 03:05:36;;;;;;;;;38.25;32.50;;;;;3.52;58.88;99608.44;5010155;28;45416;-79
2022/12/14 03:08:09;;;;;;;;;35.75;30.00;;;;;3.45;59.21;99604.22;5015351;28;45308;-78
2022/12/14 03:10:54;;;;;;;;;42.75;37.50;;;;;3.39;58.66;99606.97;5016577;28;45298;-79
2022/12/14 03:13:38;;;;;;;;;42.25;37.25;;;;;3.38;59.10;99597.34;4995105;28;45587;-78
2022/12/14 03:16:27;;;;;;;;;39.00;33.25;;;;;3.37;58.59;99603.50;4999503;28;45388;-78
2022/12/14 03:19:09;;;;;;;;;36.00;32.75;;;;;3.32;58.79;99599.22;5000128;28;45630;-78
2022/12/14 03:21:39;;;;;;;;;38.50;28.75;;;;;3.22;59.40;99591.50;5004274;28;45655;-78
2022/12/14 03:24:14;;;;;;;;;44.75;35.75;;;;;3.30;59.65;99616.81;5006674;28;45738;-78
2022/12/14 03:26:52;;;;;;;;;44.25;35.75;;;;;3.37;59.61;99617.56;5016792;28;45904;-78
2022/12/14 03:29:22;;;;;;;;;22.00;21.50;;;;;3.43;60.07;99613.94;5000243;28;45393;-79
2022/12/14 03:31:53;;;;;;;;;36.00;30.50;;;;;3.48;60.07;99612.94;5003622;28;45391;-78
2022/12/14 03:34:43;;;;;;;;;38.00;33.25;;;;;3.50;59.62;99602.34;5007311;28;46249;-78
2022/12/14 03:37:14;;;;;;;;;28.00;26.50;;;;;3.48;59.97;99601.53;4988338;28;45336;-78
2022/12/14 03:39:42;;;;;;;;;34.00;27.75;;;;;3.50;59.75;99599.72;4997394;28;45358;-78
2022/12/14 03:42:25;;;;;;;;;37.00;34.25;;;;;3.49;60.18;99596.22;5016575;28;45396;-79
2022/12/14 03:44:59;;;;;;;;;40.25;32.50;;;;;3.57;59.52;99598.66;5013576;28;45534;-78
2022/12/14 03:48:19;;;;;;;;;38.00;33.25;;;;;3.61;59.63;99586.25;4999338;28;45634;-78
2022/12/14 03:50:59;;;;;;;;;33.75;29.25;;;;;3.58;60.15;99565.25;4971881;28;45369;-78
2022/12/14 03:53:48;;;;;;;;;35.75;31.00;;;;;3.63;59.67;99572.16;5001377;28;45247;-78
2022/12/14 03:56:19;;;;;;;;;46.00;34.25;;;;;3.64;59.77;99560.69;4994215;28;46338;-78
2022/12/14 03:59:09;;;;;;;;;42.50;33.75;;;;;3.62;59.77;99559.84;5007726;28;45329;-78
2022/12/14 04:01:59;;;;;;;;;34.75;34.75;;;;;3.51;60.20;99541.63;4999533;28;45328;-78
2022/12/14 04:04:52;;;;;;;;;35.50;34.00;;;;;3.65;59.64;99561.56;4999487;28;45454;-79
2022/12/14 04:07:36;;;;;;;;;32.50;29.50;;;;;3.58;60.20;99563.47;5015078;28;45306;-79
2022/12/14 04:19:01;;;;;;;;;36.75;35.00;;;;;3.43;60.69;99548.00;5000172;28;45372;-78
2022/12/14 04:21:48;;;;;;;;;36.00;28.75;;;;;3.39;60.67;99548.94;5017353;28;45990;-78
2022/12/14 04:27:10;;;;;;;;;22.50;19.75;;;;;3.35;60.76;99550.78;4999228;28;45417;-78
2022/12/14 04:29:58;;;;;;;;;40.75;32.25;;;;;3.32;60.05;99537.66;4998835;28;45417;-78
2022/12/14 04:32:41;;;;;;;;;40.00;35.25;;;;;3.21;60.11;99534.38;5003960;28;45838;-78
2022/12/14 04:35:27;;;;;;;;;33.50;33.00;;;;;3.23;60.83;99545.78;5012681;28;45407;-78
2022/12/14 04:38:06;;;;;;;;;33.25;29.25;;;;;3.20;60.74;99546.72;5007415;28;45436;-78
2022/12/14 04:40:41;;;;;;;;;33.50;26.50;;;;;3.19;60.83;99541.47;5018758;28;46284;-78
2022/12/14 04:43:13;;;;;;;;;32.25;26.25;;;;;3.18;60.77;99545.88;4995262;28;45911;-78
2022/12/14 04:45:46;;;;;;;;;17.25;13.00;;;;;3.15;60.85;99554.72;5011997;28;45535;-78
2022/12/14 04:48:26;;;;;;;;;38.00;34.25;;;;;3.14;61.36;99565.28;5006119;28;45492;-77
2022/12/14 04:51:02;;;;;;;;;40.50;36.75;;;;;3.23;61.15;99566.88;5001574;28;45524;-78
2022/12/14 04:53:32;;;;;;;;;29.50;26.00;;;;;3.13;60.56;99553.03;5004873;28;45483;-78
2022/12/14 04:56:10;;;;;;;;;39.00;30.25;;;;;3.22;60.67;99573.06;4998785;28;45445;-78
2022/12/14 04:58:35;;;;;;;;;36.75;31.75;;;;;3.21;60.59;99572.19;4998929;28;45300;-79
2022/12/14 05:01:30;;;;;;;;;33.75;29.75;;;;;3.24;61.51;99579.16;5001552;28;46423;-78
2022/12/14 05:04:22;;;;;;;;;32.25;26.25;;;;;3.23;60.84;99573.03;4998655;28;46183;-78
2022/12/14 05:07:00;;;;;;;;;44.75;34.50;;;;;3.20;61.18;99572.22;5005605;28;45314;-78
2022/12/14 05:09:30;;;;;;;;;31.50;27.75;;;;;3.20;61.11;99566.94;5016040;28;45325;-78
2022/12/14 05:12:16;;;;;;;;;28.75;27.50;;;;;3.22;60.92;99573.06;5017175;28;46217;-78
2022/12/14 05:14:51;;;;;;;;;29.50;25.75;;;;;3.23;61.14;99564.25;5011363;28;45310;-79
2022/12/14 05:17:17;;;;;;;;;36.00;29.25;;;;;3.23;61.41;99567.75;4999141;28;45405;-78
2022/12/14 05:19:49;;;;;;;;;40.75;31.75;;;;;3.26;61.67;99554.50;5004539;28;45509;-78
2022/12/14 05:22:16;;;;;;;;;43.00;37.75;;;;;3.31;61.20;99555.25;5016768;28;45386;-78
2022/12/14 05:24:42;;;;;;;;;39.00;33.50;;;;;3.33;61.31;99552.59;5013292;28;45883;-78
2022/12/14 05:27:07;;;;;;;;;36.00;31.50;;;;;3.34;61.07;99560.47;4998582;28;45468;-78
2022/12/14 05:29:33;;;;;;;;;34.75;30.50;;;;;3.42;61.61;99560.28;5002735;28;45307;-78
2022/12/14 05:32:00;;;;;;;;;37.00;32.75;;;;;3.45;61.45;99557.59;5010935;28;46011;-78
2022/12/14 05:34:25;;;;;;;;;33.50;29.75;;;;;3.40;61.34;99550.69;4998227;28;45303;-78
2022/12/14 05:36:50;;;;;;;;;44.25;37.00;;;;;3.43;61.53;99553.28;4998783;28;45483;-78
2022/12/14 05:39:16;;;;;;;;;33.00;26.75;;;;;3.33;61.23;99526.22;5012880;28;45862;-78
2022/12/14 05:41:41;;;;;;;;;40.25;33.50;;;;;3.40;60.45;99541.00;5011926;28;46237;-79
2022/12/14 05:44:07;;;;;;;;;37.00;29.25;;;;;3.38;61.25;99540.16;5001556;28;45369;-79
2022/12/14 05:46:32;;;;;;;;;35.00;30.00;;;;;3.39;60.88;99563.03;5001278;28;45581;-78
2022/12/14 05:48:58;;;;;;;;;35.00;33.75;;;;;3.38;61.01;99561.28;5002397;28;45314;-78
2022/12/14 05:51:24;;;;;;;;;38.00;30.75;;;;;3.41;61.40;99574.41;5013690;28;46229;-78
2022/12/14 05:53:49;;;;;;;;;36.00;29.25;;;;;3.39;61.42;99570.94;5012549;28;45643;-79
2022/12/14 05:56:14;;;;;;;;;39.75;29.75;;;;;3.35;61.04;99577.16;5002626;28;45585;-78
2022/12/14 05:58:40;;;;;;;;;31.00;24.50;;;;;3.39;61.08;99581.50;5002781;28;45457;-79
2022/12/14 06:01:08;;;;;;;;;50.00;40.00;;;;;3.37;60.93;99585.91;5013018;28;46081;-78
2022/12/14 06:03:34;;;;;;;;;29.75;25.00;;;;;3.34;61.08;99589.50;5021061;28;45354;-79
2022/12/14 06:06:04;;;;;;;;;42.25;36.00;;;;;3.35;62.03;99595.63;5014685;28;45344;-78
2022/12/14 06:08:31;;;;;;;;;34.25;33.25;;;;;3.36;61.82;99593.84;5008245;28;45457;-79
2022/12/14 06:11:07;;;;;;;;;32.50;29.50;;;;;3.38;62.18;99595.56;5013639;28;46184;-79
2022/12/14 06:13:37;;;;;;;;;34.25;28.75;;;;;3.38;61.83;99600.00;5012822;28;45943;-78
2022/12/14 06:16:17;;;;;;;;;39.00;33.50;;;;;3.40;62.04;99598.19;5011857;28;45665;-78
2022/12/14 06:18:45;;;;;;;;;34.00;28.00;;;;;3.42;61.94;99602.50;5001040;28;45343;-78
2022/12/14 06:21:12;;;;;;;;;41.50;29.75;;;;;3.44;62.13;99595.44;5001000;28;46153;-78
2022/12/14 06:23:38;;;;;;;;;33.75;26.50;;;;;3.43;62.20;99606.88;5005308;28;46116;-78
2022/12/14 06:26:03;;;;;;;;;38.75;32.75;;;;;3.43;61.98;99598.13;5010898;28;45719;-78
2022/12/14 06:28:29;;;;;;;;;32.75;29.25;;;;;3.43;61.86;99595.47;5001529;28;45388;-70
2022/12/14 06:30:54;;;;;;;;;36.75;32.25;;;;;3.45;62.46;99591.88;4999793;28;46119;-76
2022/12/14 06:33:20;;;;;;;;;30.25;27.00;;;;;3.41;62.50;99584.06;5001431;28;45738;-76
2022/12/14 06:35:45;;;;;;;;;38.50;31.75;;;;;3.44;62.67;99589.28;5010633;28;45448;-70
2022/12/14 06:38:12;;;;;;;;;41.50;31.25;;;;;3.42;62.63;99602.50;5006892;28;45668;-76
2022/12/14 06:40:38;;;;;;;;;33.00;27.75;;;;;3.41;62.45;99602.53;5009112;28;46133;-71
2022/12/14 06:43:03;;;;;;;;;36.75;27.75;;;;;3.40;62.60;99595.53;5011427;28;46020;-77
2022/12/14 06:45:29;;;;;;;;;41.50;31.50;;;;;3.45;62.91;99589.25;5000900;28;45499;-76
2022/12/14 06:47:54;;;;;;;;;44.50;35.50;;;;;3.46;62.70;99583.09;5013188;28;45618;-76
2022/12/14 06:50:20;;;;;;;;;33.50;30.25;;;;;3.55;62.26;99602.25;5016527;28;45514;-78
2022/12/14 06:52:49;;;;;;;;;41.50;31.25;;;;;3.51;62.95;99599.69;5005560;28;45674;-77
2022/12/14 06:55:15;;;;;;;;;40.25;39.25;;;;;3.46;62.67;99591.00;5016920;28;45500;-77
2022/12/14 06:57:41;;;;;;;;;42.25;35.00;;;;;3.49;62.64;99600.59;5012452;28;45547;-77
2022/12/14 07:00:09;;;;;;;;;40.25;36.00;;;;;3.50;62.85;99597.94;5005677;28;46023;-77
2022/12/14 07:02:34;;;;;;;;;33.50;31.25;;;;;3.43;62.86;99595.47;5011612;28;45328;-77
2022/12/14 07:04:59;;;;;;;;;32.00;32.00;;;;;3.48;62.47;99612.94;5015662;28;45638;-75
2022/12/14 07:07:24;;;;;;;;;41.50;36.75;;;;;3.50;62.74;99612.91;4992450;28;45512;-76
2022/12/14 07:09:50;;;;;;;;;43.75;35.00;;;;;3.52;62.95;99619.91;5006129;28;45921;-75
2022/12/14 07:12:15;;;;;;;;;29.25;25.50;;;;;3.46;62.63;99614.75;5016637;28;45503;-76
2022/12/14 07:14:40;;;;;;;;;38.00;31.00;;;;;3.47;62.70;99618.25;5012148;28;45485;-71
2022/12/14 07:17:06;;;;;;;;;39.50;35.50;;;;;3.38;63.08;99605.25;5009537;28;45721;-72
2022/12/14 07:19:31;;;;;;;;;36.50;33.50;;;;;3.47;63.17;99632.28;5009107;28;45682;-73
2022/12/14 07:21:56;;;;;;;;;35.50;34.00;;;;;3.48;63.26;99626.13;5001717;28;45687;-73
2022/12/14 07:24:22;;;;;;;;;44.00;36.25;;;;;3.48;63.63;99617.34;5005430;28;45972;-74
2022/12/14 07:26:47;;;;;;;;;51.00;40.25;;;;;3.59;63.55;99635.56;5013262;28;45389;-75
2022/12/14 07:29:13;;;;;;;;;35.75;34.25;;;;;3.60;63.38;99645.25;5014792;28;45828;-74
2022/12/14 07:31:39;;;;;;;;;9.50;2.75;;;;;3.62;63.37;99652.22;5013334;28;45384;-73
2022/12/14 07:34:04;;;;;;;;;38.00;33.75;;;;;3.67;63.39;99652.97;5004517;28;45695;-73
2022/12/14 07:36:31;;;;;;;;;41.25;33.00;;;;;3.71;63.82;99659.94;5011083;28;45434;-72
2022/12/14 07:38:57;;;;;;;;;30.25;27.25;;;;;3.78;64.14;99662.47;5016314;28;45531;-72
2022/12/14 07:41:29;;;;;;;;;29.25;24.50;;;;;3.83;63.37;99660.59;5013658;28;45366;-70
2022/12/14 07:43:55;;;;;;;;;34.50;33.00;;;;;3.85;63.89;99664.06;5019012;28;45562;-71
2022/12/14 07:46:24;;;;;;;;;40.50;34.75;;;;;3.84;62.85;99678.16;5006082;28;45564;-71
2022/12/14 07:48:52;;;;;;;;;42.00;37.00;;;;;3.81;63.54;99683.47;5010460;28;45548;-73
2022/12/14 07:51:20;;;;;;;;;38.25;30.75;;;;;3.77;63.33;99669.50;5000154;28;45346;-76
2022/12/14 07:53:46;;;;;;;;;35.00;31.25;;;;;3.79;63.63;99675.63;5002765;28;45695;-81
2022/12/14 07:56:20;;;;;;;;;42.50;34.75;;;;;3.74;63.59;99679.25;5013026;28;45435;-77
2022/12/14 07:58:46;;;;;;;;;39.00;34.75;;;;;3.78;63.50;99675.66;5000932;28;47638;-81
2022/12/14 08:01:17;;;;;;;;;17.50;16.00;;;;;3.80;63.19;99679.13;5013951;28;45318;-81
2022/12/14 08:03:46;;;;;;;;;28.50;27.50;;;;;3.85;63.30;99683.41;5013303;28;45429;-76
2022/12/14 08:06:13;;;;;;;;;41.50;32.75;;;;;3.88;63.77;99679.84;5005458;28;45577;-70
2022/12/14 08:08:39;;;;;;;;;39.75;33.50;;;;;3.91;63.54;99682.41;5003457;28;46306;-71
2022/12/14 08:11:05;;;;;;;;;38.25;36.75;;;;;3.96;64.11;99683.19;5001460;28;45977;-72
2022/12/14 08:13:31;;;;;;;;;41.00;35.50;;;;;4.03;62.74;99686.53;5005578;28;45700;-69
2022/12/14 08:16:11;;;;;;;;;37.50;34.00;;;;;3.99;63.29;99682.22;5008433;28;45420;-73
2022/12/14 08:18:37;;;;;;;;;44.00;35.25;;;;;4.03;63.42;99692.69;5013064;28;45595;-74
2022/12/14 08:21:04;;;;;;;;;31.50;28.75;;;;;4.06;62.96;99689.13;5004140;28;45361;-75
2022/12/14 08:23:30;;;;;;;;;34.75;31.50;;;;;4.05;63.08;99688.22;5007350;28;45432;-76
2022/12/14 08:25:57;;;;;;;;;36.50;33.00;;;;;4.07;63.42;99690.84;5012611;28;45450;-75
2022/12/14 08:28:24;;;;;;;;;33.50;27.75;;;;;4.06;63.39;99684.69;4998712;28;46339;-74
2022/12/14 08:30:50;;;;;;;;;39.25;32.75;;;;;4.14;63.00;99688.94;4989437;28;45949;-73
2022/12/14 08:33:15;;;;;;;;;38.00;28.75;;;;;4.15;62.79;99683.63;5016646;28;45368;-75
2022/12/14 08:35:41;;;;;;;;;31.25;27.50;;;;;4.13;63.04;99687.22;5015437;28;45609;-74
2022/12/14 08:38:07;;;;;;;;;34.50;28.25;;;;;4.12;63.02;99702.16;5019054;28;46691;-74
2022/12/14 08:40:36;;;;;;;;;39.75;33.50;;;;;4.08;63.26;99688.16;5010347;28;45362;-74
2022/12/14 08:43:03;;;;;;;;;43.25;39.25;;;;;4.14;63.04;99699.50;5011426;28;45322;-74
2022/12/14 08:45:28;;;;;;;;;41.50;36.25;;;;;4.17;63.11;99705.56;5015070;28;45416;-74
2022/12/14 08:47:57;;;;;;;;;45.00;37.25;;;;;4.22;63.36;99713.41;5002007;28;46029;-74
2022/12/14 08:50:22;;;;;;;;;36.25;35.75;;;;;4.21;62.46;99693.16;5007082;28;45869;-75
2022/12/14 08:52:47;;;;;;;;;40.75;32.25;;;;;4.17;62.89;99700.28;5000276;28;45643;-74
2022/12/14 08:55:13;;;;;;;;;39.00;35.25;;;;;4.10;62.16;99697.84;5013830;28;45627;-74
2022/12/14 08:57:38;;;;;;;;;50.25;40.75;;;;;4.03;62.49;99691.81;5010744;28;46217;-74
2022/12/14 09:00:05;;;;;;;;;33.75;28.50;;;;;4.10;63.24;99703.97;5002368;28;45417;-74
2022/12/14 09:02:31;;;;;;;;;37.75;31.00;;;;;4.18;62.55;99707.31;5006116;28;45334;-70
2022/12/14 09:04:56;;;;;;;;;41.75;31.25;;;;;4.23;63.01;99715.16;5015297;28;45506;-70
2022/12/14 09:07:21;;;;;;;;;43.50;34.75;;;;;4.22;63.22;99713.41;5013083;28;45545;-70
2022/12/14 09:09:46;;;;;;;;;47.25;34.75;;;;;4.30;62.51;99723.81;5017741;28;45413;-71
2022/12/14 09:12:12;;;;;;;;;25.25;24.00;;;;;4.35;62.53;99716.63;5011532;28;45368;-71
2022/12/14 09:14:37;;;;;;;;;38.50;30.75;;;;;4.36;61.57;99713.97;5011611;28;45608;-69
2022/12/14 09:17:03;;;;;;;;;39.00;34.75;;;;;4.35;62.69;99708.72;5008395;28;46250;-74
2022/12/14 09:19:28;;;;;;;;;37.25;31.75;;;;;4.39;62.49;99729.75;5016088;28;45399;-67
2022/12/14 09:21:54;;;;;;;;;43.50;34.50;;;;;4.40;62.25;99742.03;5010294;28;45484;-68
2022/12/14 09:24:21;;;;;;;;;38.00;31.00;;;;;4.39;62.38;99735.03;5014373;28;45625;-69
2022/12/14 09:26:46;;;;;;;;;36.00;32.25;;;;;4.39;61.86;99734.13;5007217;28;45547;-74
2022/12/14 09:29:16;;;;;;;;;42.75;33.75;;;;;4.47;62.38;99750.69;5013931;28;45628;-73
2022/12/14 09:31:42;;;;;;;;;39.75;33.50;;;;;4.47;61.99;99757.75;5007027;28;45497;-73
2022/12/14 09:34:08;;;;;;;;;34.50;31.75;;;;;4.45;61.27;99757.78;5018163;28;45622;-73
2022/12/14 09:36:34;;;;;;;;;42.50;38.00;;;;;4.47;61.59;99760.41;5019795;28;45520;-73
2022/12/14 09:38:59;;;;;;;;;38.00;36.00;;;;;4.38;61.37;99756.19;5020328;28;45392;-73
2022/12/14 09:41:45;;;;;;;;;36.50;32.25;;;;;4.36;61.05;99769.44;5000287;28;45589;-73
2022/12/14 09:44:18;;;;;;;;;43.25;36.25;;;;;4.34;61.37;99767.72;5010043;28;45354;-73
2022/12/14 09:46:51;;;;;;;;;37.00;32.00;;;;;4.36;61.61;99766.81;5006872;28;46183;-72
2022/12/14 09:49:48;;;;;;;;;39.00;35.75;;;;;4.37;60.88;99762.38;5021160;28;45417;-72
2022/12/14 09:53:03;;;;;;;;;39.25;37.25;;;;;4.34;60.66;99770.38;5009809;28;45395;-73
2022/12/14 09:55:31;;;;;;;;;35.25;31.75;;;;;4.32;60.49;99766.91;5008424;28;45588;-72
2022/12/14 09:58:19;;;;;;;;;37.75;32.00;;;;;4.36;61.07;99763.28;5020455;28;45589;-73
2022/12/14 10:00:57;;;;;;;;;39.50;35.00;;;;;4.43;61.39;99762.25;5011120;28;45507;-73
2022/12/14 10:03:29;;;;;;;;;33.00;27.25;;;;;4.49;60.82;99758.59;5009273;28;45345;-73
2022/12/14 10:06:21;;;;;;;;;39.00;36.00;;;;;4.53;61.17;99752.34;5007229;28;45420;-72
2022/12/14 10:09:02;;;;;;;;;40.25;33.00;;;;;4.57;61.42;99762.78;5000527;28;45765;-73
2022/12/14 10:11:54;;;;;;;;;43.50;37.25;;;;;4.57;61.52;99754.00;5017321;28;45349;-73
2022/12/14 10:14:41;;;;;;;;;38.00;33.75;;;;;4.60;61.29;99764.50;5012881;28;45588;-73
2022/12/14 10:17:15;;;;;;;;;46.00;39.75;;;;;4.61;61.57;99759.19;5002422;28;45645;-73
2022/12/14 10:20:22;;;;;;;;;45.25;35.00;;;;;4.63;60.39;99764.44;5019237;28;46270;-73
2022/12/14 10:22:53;;;;;;;;;49.00;42.25;;;;;4.61;60.81;99777.69;5009267;28;45325;-73
2022/12/14 10:25:30;;;;;;;;;50.25;43.00;;;;;4.58;61.25;99761.03;5014399;28;45718;-73
2022/12/14 10:28:00;;;;;;;;;42.25;37.75;;;;;4.61;60.96;99758.28;5015987;28;45690;-73
2022/12/14 10:30:27;;;;;;;;;35.50;32.75;;;;;4.73;60.38;99760.66;5005755;28;46270;-73
2022/12/14 10:33:00;;;;;;;;;46.00;40.00;;;;;4.79;61.11;99768.44;5015130;28;45915;-74
2022/12/14 10:35:37;;;;;;;;;49.25;42.00;;;;;4.83;60.30;99769.25;5008233;28;45364;-73
2022/12/14 10:38:02;;;;;;;;;44.50;40.25;;;;;4.85;60.40;99762.13;5011964;28;45309;-73
2022/12/14 10:40:30;;;;;;;;;45.33;40.00;;;;;4.86;60.17;99765.63;5006689;28;45511;-73
2022/12/14 10:43:21;;;;;;;;;49.00;41.25;;;;;4.77;60.37;99745.56;5008685;28;45530;-67
2022/12/14 10:46:21;;;;;;;;;48.00;41.75;;;;;4.89;60.08;99771.72;5014890;28;45358;-72
2022/12/14 10:49:04;;;;;;;;;40.50;35.00;;;;;4.90;59.27;99760.25;4997300;28;45604;-74
2022/12/14 10:51:38;;;;;;;;;43.75;34.50;;;;;4.87;59.97;99765.59;5004042;28;45652;-73
2022/12/14 10:54:23;;;;;;;;;41.00;38.50;;;;;4.91;59.44;99769.03;5025643;28;45615;-73
2022/12/14 10:56:49;;;;;;;;;44.75;38.25;;;;;4.86;59.54;99757.69;5004101;28;45807;-73
2022/12/14 10:59:19;;;;;;;;;44.75;41.50;;;;;4.96;59.91;99770.66;5008839;28;45586;-73
2022/12/14 11:01:48;;;;;;;;;42.00;37.50;;;;;4.95;59.82;99768.91;5009843;28;46470;-73
2022/12/14 11:04:31;;;;;;;;;41.75;36.50;;;;;5.01;59.11;99787.28;5016017;28;45541;-69
2022/12/14 11:07:00;;;;;;;;;43.25;40.00;;;;;4.98;58.85;99784.72;5003695;28;45555;-71
2022/12/14 11:09:26;;;;;;;;;54.25;43.25;;;;;4.92;59.26;99771.63;4999791;28;45317;-71
2022/12/14 11:12:15;;;;;;;;;42.00;33.25;;;;;5.03;58.90;99789.00;4999793;28;46274;-71
2022/12/14 11:15:02;;;;;;;;;43.75;39.50;;;;;4.97;58.63;99782.13;5011830;28;45494;-72
2022/12/14 11:17:39;;;;;;;;;50.50;42.25;;;;;4.96;58.98;99775.06;5006162;28;45318;-74
2022/12/14 11:20:15;;;;;;;;;50.50;42.25;;;;;4.94;58.01;99783.03;5014205;28;45308;-70
2022/12/14 11:22:46;;;;;;;;;43.50;37.75;;;;;4.86;58.28;99776.22;5004701;28;45656;-70
2022/12/14 11:25:34;;;;;;;;;41.00;36.00;;;;;4.87;58.40;99780.59;4999785;28;45270;-74
2022/12/14 11:28:13;;;;;;;;;50.50;42.00;;;;;4.86;58.72;99786.78;5003874;28;46367;-74
2022/12/14 11:30:39;;;;;;;;;47.25;41.25;;;;;4.79;58.51;99784.31;5017599;28;45396;-73
2022/12/14 11:33:05;;;;;;;;;43.00;35.75;;;;;4.78;58.09;99779.06;5020809;28;46341;-73
2022/12/14 11:35:30;;;;;;;;;55.00;44.00;;;;;4.71;58.93;99775.69;5017691;28;45497;-73
2022/12/14 11:37:59;;;;;;;;;55.50;44.25;;;;;4.70;58.68;99773.94;5016400;28;45411;-73
2022/12/14 11:40:26;;;;;;;;;46.50;40.25;;;;;4.69;58.42;99797.78;5006195;28;45320;-74
2022/12/14 11:43:02;;;;;;;;;46.00;42.25;;;;;4.64;58.27;99790.84;5004796;28;45436;-73
2022/12/14 11:45:31;;;;;;;;;49.00;40.50;;;;;4.79;58.68;99799.28;5005167;28;45758;-73
2022/12/14 11:48:09;;;;;;;;;45.75;38.50;;;;;4.84;58.04;99807.97;5010115;28;45520;-70
2022/12/14 11:50:34;;;;;;;;;41.00;38.25;;;;;4.87;58.59;99801.75;5015727;28;45591;-71
2022/12/14 11:53:09;;;;;;;;;44.00;40.00;;;;;4.92;58.49;99807.81;5009041;28;45332;-71
2022/12/14 11:55:39;;;;;;;;;45.75;42.00;;;;;4.93;58.44;99805.13;5001134;28;45514;-71
2022/12/14 11:58:14;;;;;;;;;54.75;46.25;;;;;4.99;58.43;99797.06;5009531;28;45534;-71